Turocak, Russia
Current Conditions -  °F | °C
As of 3:30 AM on Sunday 26 Oct 2014 (Local Time) from UNBB Reporting Station
Few Clouds Few Clouds  
Wind Chill: 13°   Ceiling: Unl
Heat Index: 21°   Visibility: 6mi
Dew Point: 16°   Wind: 7mph
Humidity: 80%   Direction: 250°WSW
Pressure: 30.03"   Gusts: NA
Location:  52.27°N, 87.17°E
Report Text: UNBB 252030Z 25003MPS 9999 FEW040 M06/M09 Q1017 NOSIG RMKQFE740/0987 24CLRD66
Loading
Personal Weather Stations






























Interactive Weather Map
Tropical Storm Tracking
New forecast layout! Learn more

10-Day Weather Forecast

Advertisements
Track Severe Weather on mobile